Time;durP1;ratioP1;P1;durP2;ratioP2;P2;SDS_P1;SDS_P2;PMS_P1;PMS_P2;Temp;Humidity;BMP_temperature;BMP_pressure;BME280_temperature;BME280_humidity;BME280_pressure;Samples;Min_cycle;Max_cycle;Signal;HPM_P1;HPM_P2
2022/04/13 00:02:03;;;;;;;7.17;3.37;;;;;;;10.08;81.09;96027.69;5038877;28;20230;-66
2022/04/13 00:04:30;;;;;;;14.53;3.80;;;;;;;10.10;81.64;96016.97;5037525;28;20213;-66
2022/04/13 00:06:57;;;;;;;8.97;3.77;;;;;;;9.99;81.49;96025.28;5039011;28;20225;-66
2022/04/13 00:09:24;;;;;;;7.73;3.97;;;;;;;9.95;80.56;96030.09;5039117;28;20621;-66
2022/04/13 00:11:52;;;;;;;6.20;3.40;;;;;;;10.02;80.67;96028.38;5038208;28;20220;-66
2022/04/13 00:14:22;;;;;;;8.13;3.87;;;;;;;10.03;81.13;96031.84;5037821;28;20209;-66
2022/04/13 00:16:49;;;;;;;6.30;3.27;;;;;;;10.05;81.63;96025.41;5038350;28;20784;-67
2022/04/13 00:19:15;;;;;;;7.27;3.50;;;;;;;9.97;80.74;96025.47;5039606;28;20597;-66
2022/04/13 00:21:43;;;;;;;5.30;3.20;;;;;;;10.17;78.87;96023.97;5037687;28;20781;-66
2022/04/13 00:24:11;;;;;;;8.53;4.10;;;;;;;9.70;82.78;96030.47;5037453;28;20247;-66
2022/04/13 00:26:38;;;;;;;8.10;3.93;;;;;;;9.82;82.26;96034.28;5038651;28;20221;-66
2022/04/13 00:29:04;;;;;;;8.70;4.10;;;;;;;10.01;82.24;96023.31;5038448;28;20205;-67
2022/04/13 00:31:31;;;;;;;6.93;3.70;;;;;;;9.89;82.04;96030.78;5037476;28;20225;-66
2022/04/13 00:33:57;;;;;;;9.07;4.20;;;;;;;9.68;82.84;96035.88;5037805;28;20201;-67
2022/04/13 00:36:24;;;;;;;9.13;4.33;;;;;;;9.89;82.63;96030.78;5038252;28;20209;-66
2022/04/13 00:38:51;;;;;;;9.13;4.07;;;;;;;10.14;81.77;96029.59;5037798;28;20208;-67
2022/04/13 00:41:18;;;;;;;8.20;3.97;;;;;;;9.92;82.48;96026.97;5038051;28;20201;-66
2022/04/13 00:43:46;;;;;;;8.23;4.07;;;;;;;9.97;83.34;96024.66;5037182;28;20338;-66
2022/04/13 00:46:12;;;;;;;14.67;4.37;;;;;;;9.94;83.51;96022.34;5037650;28;20213;-66
2022/04/13 00:48:43;;;;;;;10.87;4.43;;;;;;;10.23;83.12;96028.50;5038127;28;20205;-67
2022/04/13 00:51:09;;;;;;;11.33;4.10;;;;;;;10.21;81.82;96019.16;5037837;28;20277;-67
2022/04/13 00:53:36;;;;;;;13.37;4.97;;;;;;;10.31;82.28;96025.81;5037444;28;20217;-67
2022/04/13 00:56:05;;;;;;;10.10;4.03;;;;;;;10.47;81.82;96023.81;5037539;28;20220;-66
2022/04/13 00:58:33;;;;;;;12.10;4.70;;;;;;;10.48;81.85;96017.53;5037171;28;20240;-66
2022/04/13 01:01:02;;;;;;;8.80;3.87;;;;;;;10.58;81.66;96017.28;5037636;28;20715;-66
2022/04/13 01:03:30;;;;;;;8.90;4.10;;;;;;;10.33;82.31;96014.09;5037183;28;20224;-66
2022/04/13 01:05:57;;;;;;;9.90;4.33;;;;;;;10.43;82.02;96021.72;5037755;28;20206;-66
2022/04/13 01:08:28;;;;;;;9.70;4.83;;;;;;;10.73;81.49;96026.81;5037163;28;20229;-66
2022/04/13 01:10:55;;;;;;;8.80;4.27;;;;;;;10.59;81.46;96022.38;5036608;28;20217;-66
2022/04/13 01:13:23;;;;;;;10.20;4.50;;;;;;;10.72;81.53;96017.28;5036527;28;20216;-66
2022/04/13 01:15:50;;;;;;;10.70;4.07;;;;;;;10.54;81.65;96016.03;5037576;28;20205;-66
2022/04/13 01:18:18;;;;;;;8.37;4.23;;;;;;;10.48;81.78;96017.53;5037513;28;20225;-66
2022/04/13 01:20:52;;;;;;;6.40;3.67;;;;;;;10.74;81.80;96017.88;5037218;28;20212;-66
2022/04/13 01:23:20;;;;;;;10.27;4.50;;;;;;;10.76;80.94;96020.38;5036721;28;20295;-66
2022/04/13 01:25:48;;;;;;;12.47;5.47;;;;;;;10.83;80.67;96023.88;5037389;28;20212;-66
2022/04/13 01:28:15;;;;;;;9.10;4.20;;;;;;;10.73;80.39;96026.81;5036935;28;20300;-66
2022/04/13 01:30:41;;;;;;;8.43;4.30;;;;;;;10.76;80.21;96018.53;5036878;28;20228;-66
2022/04/13 01:33:08;;;;;;;9.20;4.03;;;;;;;10.86;80.45;96019.06;5037271;28;20205;-67
2022/04/13 01:35:34;;;;;;;10.43;4.27;;;;;;;10.62;81.08;96016.72;5037346;28;20208;-66
2022/04/13 01:38:01;;;;;;;10.23;4.90;;;;;;;10.93;80.42;96011.25;5036761;28;20709;-66
2022/04/13 01:40:29;;;;;;;11.40;5.33;;;;;;;10.82;80.49;96009.91;5036779;28;20201;-66
2022/04/13 01:42:56;;;;;;;7.90;4.40;;;;;;;10.83;80.48;96015.97;5036808;28;21285;-67
2022/04/13 01:45:22;;;;;;;8.67;4.53;;;;;;;10.77;81.16;96017.53;5036850;28;20209;-67
2022/04/13 01:47:49;;;;;;;11.33;5.03;;;;;;;10.81;81.58;96018.00;5036597;28;20359;-67
2022/04/13 01:50:16;;;;;;;9.13;4.60;;;;;;;10.80;81.55;96021.63;5036593;28;20233;-66
2022/04/13 01:52:42;;;;;;;11.30;5.27;;;;;;;10.81;81.16;96018.00;5035831;28;20569;-67
2022/04/13 01:55:10;;;;;;;9.70;4.37;;;;;;;10.99;80.39;96025.31;5036772;28;20205;-66
2022/04/13 01:57:38;;;;;;;9.03;5.10;;;;;;;11.14;79.45;96036.66;5036423;28;20724;-67
2022/04/13 02:00:07;;;;;;;10.03;4.93;;;;;;;11.09;79.04;96038.22;5036593;28;20205;-67
2022/04/13 02:02:33;;;;;;;9.57;4.57;;;;;;;10.98;79.15;96036.88;5035591;28;20248;-66
2022/04/13 02:05:00;;;;;;;12.30;4.97;;;;;;;11.01;78.43;96036.50;5036462;28;20205;-66
2022/04/13 02:07:27;;;;;;;8.73;4.73;;;;;;;11.09;78.91;96033.75;5035917;28;20279;-66
2022/04/13 02:09:54;;;;;;;7.20;4.00;;;;;;;11.07;79.25;96030.50;5035715;28;20767;-66
2022/04/13 02:12:20;;;;;;;9.50;4.90;;;;;;;10.94;79.30;96027.69;5036178;28;20229;-67
2022/04/13 02:14:48;;;;;;;10.67;5.07;;;;;;;11.01;79.67;96015.41;5036364;28;20209;-67
2022/04/13 02:17:16;;;;;;;12.87;4.50;;;;;;;10.72;80.22;96029.63;5036052;28;20229;-66
2022/04/13 02:19:44;;;;;;;12.50;4.53;;;;;;;10.63;81.17;96028.09;5036539;28;20205;-66
2022/04/13 02:22:10;;;;;;;11.23;5.20;;;;;;;10.65;80.15;96024.25;5036173;28;20243;-66
2022/04/13 02:24:38;;;;;;;9.33;4.07;;;;;;;10.64;78.61;96032.34;5036115;28;20212;-67
2022/04/13 02:27:05;;;;;;;8.83;4.50;;;;;;;10.69;78.48;96025.56;5036483;28;20217;-66
2022/04/13 02:29:34;;;;;;;7.87;4.27;;;;;;;10.73;79.20;96024.19;5036433;28;20219;-67
2022/04/13 02:32:02;;;;;;;11.63;4.50;;;;;;;10.86;79.16;96031.41;5032517;28;20344;-67
2022/04/13 02:34:28;;;;;;;9.27;4.30;;;;;;;10.43;79.56;96034.91;5035393;28;20240;-66
2022/04/13 02:36:55;;;;;;;8.40;4.40;;;;;;;10.54;79.71;96030.00;5036720;28;20221;-66
2022/04/13 02:39:21;;;;;;;10.37;4.47;;;;;;;10.45;80.47;96033.72;5036447;28;20574;-67
2022/04/13 02:41:48;;;;;;;6.83;4.00;;;;;;;10.54;79.46;96029.19;5035729;28;20210;-66
2022/04/13 02:44:14;;;;;;;11.67;4.80;;;;;;;10.51;79.70;96034.81;5035986;28;20216;-66
2022/04/13 02:46:43;;;;;;;9.03;4.60;;;;;;;10.53;79.98;96030.19;5036039;28;20243;-66
2022/04/13 02:49:12;;;;;;;11.03;4.67;;;;;;;10.55;80.31;96030.81;5035458;28;20861;-66
2022/04/13 02:51:38;;;;;;;10.73;4.77;;;;;;;10.37;80.61;96031.19;5035926;28;20717;-66
2022/04/13 02:54:05;;;;;;;10.03;4.47;;;;;;;10.33;80.97;96035.16;5036556;28;20213;-66
2022/04/13 02:56:31;;;;;;;7.10;3.97;;;;;;;10.30;80.47;96034.72;5036141;28;20224;-67
2022/04/13 02:58:58;;;;;;;8.43;4.67;;;;;;;10.36;80.29;96031.34;5035501;28;20208;-67
2022/04/13 03:01:24;;;;;;;8.23;4.33;;;;;;;10.36;80.18;96033.97;5036481;28;20205;-66
2022/04/13 03:03:51;;;;;;;11.53;5.07;;;;;;;10.19;81.14;96031.69;5035558;28;20197;-67
2022/04/13 03:06:19;;;;;;;10.40;4.30;;;;;;;10.17;81.58;96029.25;5035494;28;20201;-66
2022/04/13 03:08:45;;;;;;;8.33;4.67;;;;;;;10.07;81.30;96028.69;5035876;28;21155;-66
2022/04/13 03:11:12;;;;;;;10.67;4.33;;;;;;;9.92;81.95;96030.41;5036277;28;20232;-66
2022/04/13 03:13:38;;;;;;;8.93;4.60;;;;;;;10.05;82.35;96030.66;5034702;28;20201;-67
2022/04/13 03:16:05;;;;;;;9.47;5.10;;;;;;;9.95;82.26;96023.97;5036238;28;20217;-66
2022/04/13 03:18:32;;;;;;;7.23;3.70;;;;;;;9.71;82.96;96032.91;5035820;28;21310;-66
2022/04/13 03:20:58;;;;;;;10.47;4.97;;;;;;;9.94;82.33;96032.88;5039192;28;20201;-66
2022/04/13 03:23:26;;;;;;;7.97;4.10;;;;;;;10.13;82.18;96038.50;5039326;28;20201;-66
2022/04/13 03:25:53;;;;;;;8.27;4.20;;;;;;;9.74;82.19;96048.34;5039828;28;20197;-66
2022/04/13 03:28:23;;;;;;;6.63;3.93;;;;;;;9.59;82.41;96046.66;5039064;28;20354;-66
2022/04/13 03:30:50;;;;;;;8.23;4.27;;;;;;;9.81;82.11;96053.72;5039091;28;20204;-66
2022/04/13 03:33:17;;;;;;;9.70;4.20;;;;;;;9.69;82.28;96049.88;5039157;28;20244;-66
2022/04/13 03:35:43;;;;;;;10.10;4.60;;;;;;;9.65;82.56;96053.00;5039438;28;20954;-66
2022/04/13 03:38:10;;;;;;;8.70;3.90;;;;;;;9.54;82.77;96054.25;5039107;28;20229;-66
2022/04/13 03:40:38;;;;;;;9.27;4.00;;;;;;;9.70;81.87;96060.22;5039266;28;20205;-66
2022/04/13 03:43:04;;;;;;;7.77;3.77;;;;;;;9.48;81.68;96056.75;5038828;28;20220;-67
2022/04/13 03:45:31;;;;;;;9.87;4.20;;;;;;;9.38;82.21;96050.91;5038790;28;20705;-66
2022/04/13 03:47:57;;;;;;;8.17;3.87;;;;;;;9.38;82.98;96058.78;5039086;28;20229;-67
2022/04/13 03:50:24;;;;;;;8.03;3.87;;;;;;;9.26;83.32;96060.19;5039262;28;20205;-67
2022/04/13 03:52:50;;;;;;;7.10;3.97;;;;;;;9.29;82.15;96062.44;5038187;28;20990;-66
2022/04/13 03:55:19;;;;;;;8.33;3.77;;;;;;;9.16;82.94;96063.03;5039078;28;20220;-67
2022/04/13 03:57:47;;;;;;;7.83;3.93;;;;;;;9.43;80.90;96059.09;5039665;28;20323;-66
2022/04/13 04:00:14;;;;;;;7.00;3.53;;;;;;;9.33;80.49;96059.31;5038871;28;20201;-66
2022/04/13 04:02:41;;;;;;;9.77;3.80;;;;;;;9.19;81.46;96072.41;5037637;28;20193;-66
2022/04/13 04:05:08;;;;;;;10.57;4.27;;;;;;;9.32;81.50;96070.81;5039428;28;20205;-66
2022/04/13 04:07:35;;;;;;;8.93;3.93;;;;;;;9.05;81.54;96065.25;5039056;28;20232;-66
2022/04/13 04:10:02;;;;;;;7.27;3.63;;;;;;;8.97;81.23;96062.63;5038083;28;20666;-66
2022/04/13 04:12:29;;;;;;;6.90;3.60;;;;;;;9.10;80.85;96062.91;5037128;28;20256;-66
2022/04/13 04:15:00;;;;;;;8.13;3.73;;;;;;;9.13;80.93;96065.19;5039423;28;20203;-66
2022/04/13 04:17:27;;;;;;;6.93;3.50;;;;;;;8.80;82.49;96071.56;5038483;28;20225;-66
2022/04/13 04:19:53;;;;;;;8.07;3.43;;;;;;;8.48;83.02;96075.28;5038604;28;20347;-66
2022/04/13 04:22:20;;;;;;;8.17;3.10;;;;;;;8.48;82.12;96082.19;5037331;28;20208;-66
2022/04/13 04:24:46;;;;;;;7.07;3.50;;;;;;;8.61;81.20;96086.91;5038369;28;20549;-66
2022/04/13 04:27:13;;;;;;;7.57;3.57;;;;;;;8.78;81.76;96093.75;5038173;28;20244;-66
2022/04/13 04:29:39;;;;;;;5.60;3.10;;;;;;;8.75;81.60;96083.59;5038429;28;20205;-66
2022/04/13 04:32:08;;;;;;;6.50;3.43;;;;;;;8.97;80.95;96094.16;5037573;28;20229;-66
2022/04/13 04:34:35;;;;;;;6.30;3.70;;;;;;;8.46;82.50;96095.66;5037525;28;20666;-67
2022/04/13 04:37:01;;;;;;;11.13;3.27;;;;;;;8.51;80.91;96105.50;5038210;28;20231;-66
2022/04/13 04:39:28;;;;;;;9.47;3.37;;;;;;;8.59;81.28;96104.63;5038125;28;20205;-66
2022/04/13 04:41:55;;;;;;;9.90;3.77;;;;;;;8.59;81.95;96094.97;5037709;28;20197;-66
2022/04/13 04:44:21;;;;;;;5.57;3.00;;;;;;;8.47;83.01;96097.28;5037543;28;20206;-67
2022/04/13 04:46:48;;;;;;;7.27;3.47;;;;;;;8.40;81.22;96101.56;5036634;28;20229;-65
2022/04/13 04:49:16;;;;;;;9.07;3.83;;;;;;;8.54;81.65;96106.94;5037503;28;20668;-66
2022/04/13 04:51:42;;;;;;;8.43;4.03;;;;;;;8.21;81.86;96104.53;5037405;28;20225;-65
2022/04/13 04:54:09;;;;;;;8.77;3.27;;;;;;;8.08;82.49;96110.28;5037253;28;20227;-66
2022/04/13 04:56:35;;;;;;;7.47;3.63;;;;;;;8.23;81.05;96108.63;5037674;28;20232;-66
2022/04/13 04:59:02;;;;;;;8.37;3.83;;;;;;;8.34;80.47;96110.09;5037968;28;20310;-65
2022/04/13 05:01:28;;;;;;;11.30;3.90;;;;;;;8.36;80.94;96110.75;5037887;28;20201;-66
2022/04/13 05:03:55;;;;;;;6.83;3.37;;;;;;;8.35;81.63;96119.63;5036509;28;20198;-66
2022/04/13 05:06:27;;;;;;;7.50;3.40;;;;;;;8.44;81.09;96110.75;5037740;28;20228;-66
2022/04/13 05:08:55;;;;;;;11.47;3.60;;;;;;;8.22;82.54;96114.06;5038038;28;20193;-66
2022/04/13 05:11:22;;;;;;;7.80;3.50;;;;;;;8.23;81.01;96113.06;5037469;28;20260;-66
2022/04/13 05:13:48;;;;;;;11.20;3.37;;;;;;;8.22;79.66;96114.06;5037043;28;20201;-66
2022/04/13 05:16:15;;;;;;;14.40;4.83;;;;;;;8.30;81.31;96103.53;5037521;28;20565;-66
2022/04/13 05:18:43;;;;;;;11.80;4.77;;;;;;;8.45;82.28;96107.13;5037196;28;20700;-65
2022/04/13 05:21:10;;;;;;;17.23;5.27;;;;;;;8.49;82.05;96104.81;5037866;28;20566;-66
2022/04/13 05:23:37;;;;;;;23.43;6.37;;;;;;;8.70;82.54;96101.66;5036965;28;20201;-66
2022/04/13 05:26:04;;;;;;;14.40;6.23;;;;;;;8.48;83.92;96104.16;5037070;28;20287;-66
2022/04/13 05:28:31;;;;;;;15.20;5.53;;;;;;;8.58;83.78;96110.91;5037106;28;20225;-66
2022/04/13 05:30:58;;;;;;;13.57;5.17;;;;;;;8.74;83.39;96109.00;5036803;28;20295;-65
2022/04/13 05:33:24;;;;;;;12.00;5.10;;;;;;;8.90;82.41;96103.72;5036268;28;20709;-65
2022/04/13 05:35:51;;;;;;;11.27;5.00;;;;;;;8.86;82.81;96117.34;5037171;28;20201;-66
2022/04/13 05:38:18;;;;;;;9.80;4.63;;;;;;;9.00;82.71;96116.66;5037612;28;20236;-66
2022/04/13 05:40:46;;;;;;;13.90;4.83;;;;;;;9.09;82.63;96113.84;5036831;28;20700;-66
2022/04/13 05:43:13;;;;;;;8.80;4.37;;;;;;;8.99;82.62;96110.59;5035221;28;20202;-66
2022/04/13 05:45:40;;;;;;;10.73;5.40;;;;;;;9.13;82.78;96115.13;5036859;28;20291;-66
2022/04/13 05:48:07;;;;;;;12.93;4.30;;;;;;;9.38;82.55;96117.47;5037053;28;20236;-66
2022/04/13 05:50:33;;;;;;;9.87;4.97;;;;;;;9.41;82.33;96117.13;5036983;28;20212;-66
2022/04/13 05:53:00;;;;;;;11.20;4.93;;;;;;;9.56;82.19;96117.19;5036205;28;20224;-66
2022/04/13 05:55:26;;;;;;;14.20;5.33;;;;;;;9.67;81.83;96112.34;5036862;28;20236;-66
2022/04/13 05:57:54;;;;;;;12.20;4.87;;;;;;;10.03;80.42;96127.44;5036822;28;20221;-66
2022/04/13 06:00:21;;;;;;;8.60;4.47;;;;;;;10.12;79.36;96130.81;5036591;28;20729;-66
2022/04/13 06:02:47;;;;;;;10.50;4.77;;;;;;;10.22;78.53;96131.38;5036234;28;20202;-65
2022/04/13 06:05:14;;;;;;;8.40;4.17;;;;;;;10.40;76.86;96135.34;5037227;28;20208;-66
2022/04/13 06:07:41;;;;;;;10.43;4.20;;;;;;;10.51;75.04;96135.75;5036362;28;20221;-66
2022/04/13 06:10:09;;;;;;;8.27;4.10;;;;;;;10.77;74.33;96133.50;5035860;28;20693;-66
2022/04/13 06:12:35;;;;;;;7.60;4.07;;;;;;;10.81;73.46;96140.03;5036190;28;20253;-66
2022/04/13 06:15:05;;;;;;;8.40;4.17;;;;;;;11.09;72.46;96133.97;5037029;28;20205;-66
2022/04/13 06:17:32;;;;;;;8.27;4.23;;;;;;;10.90;72.17;96138.16;5035799;28;20228;-66
2022/04/13 06:19:58;;;;;;;9.17;4.00;;;;;;;11.03;71.90;96141.78;5036312;28;20229;-66
2022/04/13 06:22:25;;;;;;;8.80;4.23;;;;;;;11.24;71.17;96142.69;5036765;28;20207;-66
2022/04/13 06:24:52;;;;;;;8.80;3.80;;;;;;;11.20;68.33;96135.31;5036586;28;20201;-67
2022/04/13 06:27:19;;;;;;;6.47;3.80;;;;;;;11.40;69.68;96136.41;5035549;28;20225;-66
2022/04/13 06:29:45;;;;;;;7.20;3.50;;;;;;;11.49;69.52;96141.38;5036336;28;20221;-66
2022/04/13 06:32:13;;;;;;;8.10;3.83;;;;;;;11.77;70.00;96148.47;5035658;28;20728;-66
2022/04/13 06:34:40;;;;;;;9.17;3.87;;;;;;;11.70;70.04;96144.09;5035145;28;20201;-66
2022/04/13 06:37:06;;;;;;;13.90;3.83;;;;;;;11.58;70.12;96150.84;5036169;28;20351;-66
2022/04/13 06:39:33;;;;;;;7.07;4.00;;;;;;;11.73;68.82;96156.91;5036465;28;20212;-66
2022/04/13 06:41:59;;;;;;;12.17;5.00;;;;;;;11.59;69.29;96155.94;5036140;28;20204;-66
2022/04/13 06:44:27;;;;;;;9.03;3.70;;;;;;;11.66;70.08;96158.69;5035394;28;20204;-66
2022/04/13 06:46:54;;;;;;;7.73;3.67;;;;;;;11.83;69.86;96162.72;5036423;28;20233;-66
2022/04/13 06:49:22;;;;;;;12.23;4.00;;;;;;;12.04;69.49;96168.88;5036396;28;20664;-66
2022/04/13 06:51:48;;;;;;;7.93;4.30;;;;;;;12.01;66.29;96168.41;5035975;28;20205;-66
2022/04/13 06:54:15;;;;;;;7.83;4.53;;;;;;;11.94;67.04;96172.78;5036415;28;20230;-66
2022/04/13 06:56:41;;;;;;;9.17;4.77;;;;;;;12.12;67.52;96171.38;5038898;28;20926;-66
2022/04/13 06:59:08;;;;;;;10.57;4.27;;;;;;;12.10;68.81;96172.56;5039457;28;20205;-66
2022/04/13 07:01:34;;;;;;;9.33;5.17;;;;;;;12.34;67.34;96171.19;5039351;28;20204;-66
2022/04/13 07:04:01;;;;;;;9.53;5.03;;;;;;;12.17;68.45;96164.50;5039207;28;20565;-66
2022/04/13 07:06:28;;;;;;;8.23;5.03;;;;;;;12.60;67.62;96171.44;5039542;28;20583;-66
2022/04/13 07:08:55;;;;;;;13.17;5.43;;;;;;;12.42;67.92;96170.22;5039167;28;20208;-67
2022/04/13 07:11:21;;;;;;;14.27;5.13;;;;;;;12.25;68.27;96171.50;5039376;28;20235;-66
2022/04/13 07:13:48;;;;;;;14.23;4.93;;;;;;;12.71;65.12;96160.31;5039177;28;20981;-66
2022/04/13 07:16:15;;;;;;;12.60;5.00;;;;;;;12.96;64.69;96166.84;5037974;28;20303;-66
2022/04/13 07:18:41;;;;;;;10.33;5.03;;;;;;;13.14;65.93;96154.75;5039115;28;20205;-67
2022/04/13 07:21:07;;;;;;;16.70;5.40;;;;;;;13.31;65.38;96157.91;5038751;28;20205;-66
2022/04/13 07:23:35;;;;;;;9.80;5.05;;;;;;;13.57;64.65;96158.88;5036384;28;20193;-66
2022/04/13 07:26:02;;;;;;;7.15;4.20;;;;;;;13.35;63.85;96151.22;5038781;28;20687;-66
2022/04/13 07:28:28;;;;;;;9.05;4.30;;;;;;;13.33;64.13;96158.50;5038989;28;20225;-67
2022/04/13 07:30:55;;;;;;;7.65;4.05;;;;;;;13.56;61.36;96159.88;5038022;28;20201;-67
2022/04/13 07:33:21;;;;;;;8.35;3.47;;;;;;;13.74;58.08;96160.97;5037523;28;20221;-67
2022/04/13 07:35:48;;;;;;;8.82;3.78;;;;;;;13.80;60.72;96162.03;5038830;28;20689;-66
2022/04/13 07:38:14;;;;;;;9.20;3.83;;;;;;;13.81;58.93;96164.47;5037818;28;20232;-67
2022/04/13 07:40:42;;;;;;;7.35;4.15;;;;;;;14.10;61.38;96157.06;5038084;28;20216;-66
2022/04/13 07:43:09;;;;;;;10.65;3.90;;;;;;;13.94;61.87;96164.50;5038474;28;20308;-66
2022/04/13 07:45:35;;;;;;;10.73;3.97;;;;;;;14.12;59.54;96162.94;5038307;28;20222;-67
2022/04/13 07:48:02;;;;;;;11.60;4.10;;;;;;;14.26;59.87;96166.47;5038160;28;20234;-66
2022/04/13 07:50:28;;;;;;;11.20;4.13;;;;;;;14.41;59.82;96169.72;5038656;28;20221;-66
2022/04/13 07:52:55;;;;;;;9.02;4.30;;;;;;;14.06;58.72;96173.50;5037830;28;20885;-66
2022/04/13 07:55:21;;;;;;;9.05;4.57;;;;;;;14.38;58.13;96172.78;5038892;28;20209;-66
2022/04/13 07:57:49;;;;;;;9.18;4.53;;;;;;;14.48;59.79;96175.88;5039121;28;20216;-67
2022/04/13 08:00:16;;;;;;;10.88;4.63;;;;;;;14.55;60.03;96180.16;5039099;28;20211;-67
2022/04/13 08:02:44;;;;;;;8.45;4.32;;;;;;;14.82;57.45;96182.63;5037518;28;20584;-66
2022/04/13 08:05:13;;;;;;;9.82;4.55;;;;;;;15.04;60.50;96178.72;5038361;28;20205;-66
2022/04/13 08:07:39;;;;;;;11.20;4.85;;;;;;;14.81;58.88;96178.31;5037659;28;20312;-66
2022/04/13 08:10:07;;;;;;;11.35;4.50;;;;;;;14.94;60.39;96180.16;5038353;28;20860;-66
2022/04/13 08:12:34;;;;;;;8.60;4.00;;;;;;;15.27;60.01;96172.00;5036820;28;20205;-67
2022/04/13 08:15:04;;;;;;;8.45;4.15;;;;;;;15.53;55.77;96171.94;5038738;28;20205;-66
2022/04/13 08:17:30;;;;;;;12.30;4.70;;;;;;;15.55;54.94;96177.84;5038481;28;20339;-66
2022/04/13 08:19:57;;;;;;;8.60;4.38;;;;;;;15.81;56.01;96184.91;5037900;28;20205;-66
2022/04/13 08:22:24;;;;;;;8.52;4.03;;;;;;;15.89;55.13;96183.66;5038095;28;20216;-66
2022/04/13 08:24:51;;;;;;;12.23;4.50;;;;;;;16.01;56.33;96187.31;5038074;28;20205;-66
2022/04/13 08:27:17;;;;;;;13.57;4.65;;;;;;;16.14;53.84;96187.25;5037805;28;20339;-66
2022/04/13 08:29:45;;;;;;;9.05;4.18;;;;;;;16.14;52.63;96181.09;5038159;28;20220;-67
2022/04/13 08:32:13;;;;;;;14.60;4.95;;;;;;;16.36;52.10;96188.56;5038142;28;20282;-66
2022/04/13 08:34:39;;;;;;;10.60;4.97;;;;;;;16.25;52.96;96189.22;5037858;28;20235;-67
2022/04/13 08:37:06;;;;;;;12.68;4.78;;;;;;;16.15;55.55;96190.69;5038128;28;20279;-66
2022/04/13 08:39:32;;;;;;;18.13;5.32;;;;;;;16.42;53.71;96194.88;5037910;28;20867;-66
2022/04/13 08:42:03;;;;;;;13.02;5.43;;;;;;;16.58;53.51;96189.88;5037655;28;20205;-66
2022/04/13 08:44:36;;;;;;;14.48;5.63;;;;;;;16.58;52.09;96190.66;5037387;28;20202;-66
2022/04/13 08:47:08;;;;;;;16.52;5.10;;;;;;;16.57;56.01;96188.22;5036780;28;20279;-67
2022/04/13 08:49:38;;;;;;;8.95;5.00;;;;;;;16.61;55.62;96187.59;5036315;28;20665;-66
2022/04/13 08:52:08;;;;;;;12.05;5.00;;;;;;;16.86;57.06;96190.28;5037006;28;20209;-66
2022/04/13 08:54:41;;;;;;;10.27;5.05;;;;;;;16.79;56.28;96189.50;5036932;28;20220;-67
2022/04/13 08:57:09;;;;;;;10.30;5.03;;;;;;;16.88;54.84;96191.69;5037253;28;21283;-66
2022/04/13 08:59:46;;;;;;;11.15;4.70;;;;;;;17.27;55.17;96180.75;5037463;28;20553;-67
2022/04/13 09:02:27;;;;;;;12.57;5.20;;;;;;;17.27;56.60;96186.91;5036495;28;21224;-66
2022/04/13 09:04:57;;;;;;;10.93;4.65;;;;;;;17.61;53.31;96178.34;5035219;28;20201;-66
2022/04/13 09:07:26;;;;;;;9.18;4.35;;;;;;;17.62;54.62;96179.97;5036276;28;20232;-67
2022/04/13 09:09:56;;;;;;;11.77;4.80;;;;;;;17.47;55.44;96192.84;5036651;28;20201;-67
2022/04/13 09:12:23;;;;;;;10.95;4.80;;;;;;;17.84;55.37;96184.63;5034857;28;20201;-67
2022/04/13 09:14:50;;;;;;;9.88;4.57;;;;;;;17.53;53.45;96191.16;5034359;28;20224;-67
2022/04/13 09:17:17;;;;;;;13.88;5.32;;;;;;;17.33;53.04;96194.00;5035840;28;20232;-67
2022/04/13 09:19:47;;;;;;;15.85;5.03;;;;;;;17.87;53.66;96188.69;5037239;28;20209;-66
2022/04/13 09:22:18;;;;;;;10.07;4.47;;;;;;;18.21;51.85;96196.13;5036173;28;20213;-67
2022/04/13 09:24:46;;;;;;;16.95;6.15;;;;;;;18.40;50.53;96190.53;5037192;28;20547;-67
2022/04/13 09:27:13;;;;;;;10.20;4.80;;;;;;;18.38;52.54;96192.63;5035603;28;20233;-67
2022/04/13 09:29:40;;;;;;;12.75;6.00;;;;;;;18.38;51.49;96192.63;5036363;28;20201;-67
2022/04/13 09:32:08;;;;;;;11.65;4.88;;;;;;;18.17;54.32;96195.75;5036968;28;20213;-67
2022/04/13 09:34:35;;;;;;;12.70;5.18;;;;;;;18.27;54.29;96201.38;5036567;28;20232;-67
2022/04/13 09:37:01;;;;;;;9.57;4.72;;;;;;;18.26;53.80;96194.41;5036728;28;20217;-67
2022/04/13 09:39:29;;;;;;;12.45;5.68;;;;;;;18.80;54.10;96200.44;5036529;28;20232;-67
2022/04/13 09:42:02;;;;;;;13.88;5.68;;;;;;;19.17;51.78;96199.22;5034099;28;20204;-67
2022/04/13 09:44:29;;;;;;;11.45;4.78;;;;;;;18.96;51.98;96207.75;5034996;28;20205;-67
2022/04/13 09:47:05;;;;;;;13.93;5.50;;;;;;;19.85;51.60;96198.44;5035762;28;20243;-68
2022/04/13 09:49:32;;;;;;;18.10;7.13;;;;;;;20.08;52.61;96193.88;5035005;28;20684;-67
2022/04/13 09:51:59;;;;;;;28.75;13.50;;;;;;;20.11;51.57;96188.06;5035120;28;20201;-67
2022/04/13 09:54:26;;;;;;;15.05;6.72;;;;;;;19.49;47.95;96193.34;5034485;28;20256;-68
2022/04/13 09:56:54;;;;;;;14.18;5.82;;;;;;;19.20;49.20;96188.09;5036675;28;20225;-67
2022/04/13 09:59:25;;;;;;;19.58;6.32;;;;;;;19.93;53.31;96179.38;5036246;28;20212;-67
2022/04/13 10:01:51;;;;;;;14.10;5.80;;;;;;;20.35;50.44;96178.88;5036217;28;20204;-67
2022/04/13 10:04:24;;;;;;;14.27;5.53;;;;;;;20.24;52.27;96171.72;5035916;28;20208;-67
2022/04/13 10:06:50;;;;;;;12.35;5.35;;;;;;;19.91;50.24;96173.47;5037171;28;20315;-67
2022/04/13 10:09:19;;;;;;;13.10;5.78;;;;;;;19.80;48.21;96172.38;5036470;28;20217;-67
2022/04/13 10:12:01;;;;;;;14.48;5.68;;;;;;;19.74;49.52;96164.47;5036697;28;20316;-67
2022/04/13 10:14:27;;;;;;;12.10;5.63;;;;;;;19.34;50.73;96165.44;5036171;28;20584;-67
2022/04/13 10:16:56;;;;;;;15.40;6.15;;;;;;;19.48;51.92;96156.16;5036387;28;20220;-67
2022/04/13 10:19:23;;;;;;;13.02;5.70;;;;;;;19.91;50.28;96155.53;5036127;28;20251;-66
2022/04/13 10:21:51;;;;;;;11.93;5.07;;;;;;;20.46;48.22;96160.09;5036574;28;20209;-68
2022/04/13 10:24:26;;;;;;;11.48;5.28;;;;;;;19.96;47.53;96158.31;5036102;28;20201;-67
2022/04/13 10:27:04;;;;;;;14.50;5.95;;;;;;;20.63;46.05;96157.47;5035930;28;20747;-67
2022/04/13 10:29:33;;;;;;;13.73;5.35;;;;;;;20.56;47.09;96159.50;5037947;28;20201;-67
2022/04/13 10:32:06;;;;;;;14.50;5.45;;;;;;;20.51;47.59;96149.50;5040662;28;20669;-67
2022/04/13 10:34:36;;;;;;;10.55;5.05;;;;;;;20.90;48.39;96157.47;5039829;28;20306;-67
2022/04/13 10:37:02;;;;;;;11.35;5.22;;;;;;;20.39;45.90;96147.91;5040576;28;20240;-67
2022/04/13 10:39:30;;;;;;;17.73;5.88;;;;;;;21.03;45.43;96145.63;5040738;28;20222;-67
2022/04/13 10:41:57;;;;;;;14.32;5.38;;;;;;;20.90;45.67;96141.41;5040455;28;20197;-67
2022/04/13 10:44:34;;;;;;;9.07;4.25;;;;;;;20.98;47.13;96143.66;5039836;28;20197;-67
2022/04/13 10:47:04;;;;;;;12.50;5.53;;;;;;;21.16;46.36;96132.69;5040449;28;20260;-67
2022/04/13 10:49:38;;;;;;;10.38;5.40;;;;;;;21.28;45.62;96133.41;5040191;28;20231;-67
2022/04/13 10:52:10;;;;;;;9.10;5.00;;;;;;;21.51;43.51;96126.03;5040267;28;20646;-67
2022/04/13 10:54:38;;;;;;;19.42;6.10;;;;;;;21.08;47.83;96130.44;5039962;28;20231;-67
2022/04/13 10:57:07;;;;;;;14.27;5.43;;;;;;;21.69;46.40;96124.91;5038982;28;20236;-67
2022/04/13 10:59:44;;;;;;;11.15;5.65;;;;;;;21.82;43.11;96127.25;5039899;28;20201;-67
2022/04/13 11:02:21;;;;;;;12.43;5.10;;;;;;;22.07;46.37;96120.31;5039392;28;20623;-67
2022/04/13 11:04:49;;;;;;;20.52;6.28;;;;;;;21.99;43.78;96115.38;5039115;28;20203;-67
2022/04/13 11:07:17;;;;;;;13.63;5.97;;;;;;;22.33;43.13;96116.91;5040781;28;20236;-68
2022/04/13 11:09:46;;;;;;;11.35;5.55;;;;;;;21.68;46.07;96117.94;5040336;28;20212;-67
2022/04/13 11:12:13;;;;;;;9.43;4.75;;;;;;;22.17;44.35;96113.22;5038851;28;20197;-67
2022/04/13 11:14:50;;;;;;;11.43;4.78;;;;;;;22.38;43.84;96120.44;5038922;28;20319;-67
2022/04/13 11:17:25;;;;;;;11.20;4.70;;;;;;;22.48;41.36;96125.94;5040164;28;20310;-67
2022/04/13 11:19:51;;;;;;;10.93;4.68;;;;;;;22.71;41.19;96123.72;5039617;28;20232;-67
2022/04/13 11:22:19;;;;;;;11.52;4.78;;;;;;;22.37;40.32;96129.56;5038791;28;20227;-66
2022/04/13 11:25:04;;;;;;;7.72;3.25;;;;;;;22.54;38.58;96124.09;5039686;28;20208;-67
2022/04/13 11:27:50;;;;;;;7.97;3.78;;;;;;;22.76;37.86;96123.78;5039379;28;20233;-67
2022/04/13 11:30:18;;;;;;;7.63;3.70;;;;;;;22.94;38.46;96119.91;5039308;28;20242;-67
2022/04/13 11:32:45;;;;;;;12.13;4.20;;;;;;;22.99;37.47;96123.47;5038675;28;20687;-67
2022/04/13 11:35:23;;;;;;;9.27;3.75;;;;;;;23.18;36.80;96121.19;5038661;28;20217;-67